sensor_id;sensor_type;location;lat;lon;timestamp;P1;durP1;ratioP1;P2;durP2;ratioP2
57551;SDS011;43379;48.160;14.036;2022-10-04T00:02:58;7.87;;;5.30;;
57551;SDS011;43379;48.160;14.036;2022-10-04T00:05:34;8.07;;;5.17;;
57551;SDS011;43379;48.160;14.036;2022-10-04T00:08:05;5.03;;;4.33;;
57551;SDS011;43379;48.160;14.036;2022-10-04T00:10:48;4.37;;;3.90;;
57551;SDS011;43379;48.160;14.036;2022-10-04T00:13:24;6.00;;;5.20;;
57551;SDS011;43379;48.160;14.036;2022-10-04T00:15:53;5.70;;;4.30;;
57551;SDS011;43379;48.160;14.036;2022-10-04T00:18:23;4.23;;;3.77;;
57551;SDS011;43379;48.160;14.036;2022-10-04T00:25:51;6.40;;;4.60;;
57551;SDS011;43379;48.160;14.036;2022-10-04T00:28:44;6.70;;;4.77;;
57551;SDS011;43379;48.160;14.036;2022-10-04T00:31:18;5.33;;;4.83;;
57551;SDS011;43379;48.160;14.036;2022-10-04T00:46:57;6.17;;;5.17;;
57551;SDS011;43379;48.160;14.036;2022-10-04T00:49:27;6.20;;;5.20;;
57551;SDS011;43379;48.160;14.036;2022-10-04T00:52:18;6.30;;;5.27;;
57551;SDS011;43379;48.160;14.036;2022-10-04T00:54:49;5.40;;;4.17;;
57551;SDS011;43379;48.160;14.036;2022-10-04T00:57:23;5.07;;;4.57;;
57551;SDS011;43379;48.160;14.036;2022-10-04T00:59:51;6.00;;;5.07;;
57551;SDS011;43379;48.160;14.036;2022-10-04T01:02:28;9.47;;;5.77;;
57551;SDS011;43379;48.160;14.036;2022-10-04T01:07:32;7.00;;;5.10;;
57551;SDS011;43379;48.160;14.036;2022-10-04T01:10:13;12.47;;;5.73;;
57551;SDS011;43379;48.160;14.036;2022-10-04T01:15:49;6.43;;;4.90;;
57551;SDS011;43379;48.160;14.036;2022-10-04T01:26:03;6.13;;;4.87;;
57551;SDS011;43379;48.160;14.036;2022-10-04T01:28:32;5.83;;;5.03;;
57551;SDS011;43379;48.160;14.036;2022-10-04T01:30:59;5.27;;;4.73;;
57551;SDS011;43379;48.160;14.036;2022-10-04T01:33:25;4.93;;;4.50;;
57551;SDS011;43379;48.160;14.036;2022-10-04T01:35:51;9.27;;;5.40;;
57551;SDS011;43379;48.160;14.036;2022-10-04T01:38:17;5.53;;;4.90;;
57551;SDS011;43379;48.160;14.036;2022-10-04T01:40:46;5.43;;;4.93;;
57551;SDS011;43379;48.160;14.036;2022-10-04T01:43:21;6.00;;;4.23;;
57551;SDS011;43379;48.160;14.036;2022-10-04T01:45:55;8.00;;;4.80;;
57551;SDS011;43379;48.160;14.036;2022-10-04T01:48:28;5.20;;;4.30;;
57551;SDS011;43379;48.160;14.036;2022-10-04T01:51:19;5.90;;;5.03;;
57551;SDS011;43379;48.160;14.036;2022-10-04T01:53:50;6.63;;;5.60;;
57551;SDS011;43379;48.160;14.036;2022-10-04T01:56:37;5.70;;;4.53;;
57551;SDS011;43379;48.160;14.036;2022-10-04T01:59:22;5.60;;;4.50;;
57551;SDS011;43379;48.160;14.036;2022-10-04T02:01:58;5.20;;;4.23;;
57551;SDS011;43379;48.160;14.036;2022-10-04T02:04:31;5.50;;;5.00;;
57551;SDS011;43379;48.160;14.036;2022-10-04T02:07:02;7.60;;;4.43;;
57551;SDS011;43379;48.160;14.036;2022-10-04T02:09:36;7.40;;;4.93;;
57551;SDS011;43379;48.160;14.036;2022-10-04T02:12:05;5.40;;;4.57;;
57551;SDS011;43379;48.160;14.036;2022-10-04T02:14:31;5.57;;;4.97;;
57551;SDS011;43379;48.160;14.036;2022-10-04T02:16:58;6.03;;;5.27;;
57551;SDS011;43379;48.160;14.036;2022-10-04T02:19:37;7.67;;;4.90;;
57551;SDS011;43379;48.160;14.036;2022-10-04T02:22:06;4.83;;;4.33;;
57551;SDS011;43379;48.160;14.036;2022-10-04T02:24:34;5.30;;;4.60;;
57551;SDS011;43379;48.160;14.036;2022-10-04T02:27:04;6.03;;;4.43;;
57551;SDS011;43379;48.160;14.036;2022-10-04T02:29:30;5.30;;;4.80;;
57551;SDS011;43379;48.160;14.036;2022-10-04T02:34:32;5.07;;;4.67;;
57551;SDS011;43379;48.160;14.036;2022-10-04T02:37:00;5.03;;;4.37;;
57551;SDS011;43379;48.160;14.036;2022-10-04T02:39:29;7.13;;;4.10;;
57551;SDS011;43379;48.160;14.036;2022-10-04T02:45:08;6.80;;;5.10;;
57551;SDS011;43379;48.160;14.036;2022-10-04T02:47:42;6.30;;;5.70;;
57551;SDS011;43379;48.160;14.036;2022-10-04T02:50:27;4.30;;;4.00;;
57551;SDS011;43379;48.160;14.036;2022-10-04T02:52:56;6.67;;;4.83;;
57551;SDS011;43379;48.160;14.036;2022-10-04T02:55:32;8.80;;;5.07;;
57551;SDS011;43379;48.160;14.036;2022-10-04T02:58:00;5.93;;;5.03;;
57551;SDS011;43379;48.160;14.036;2022-10-04T03:00:27;5.63;;;5.13;;
57551;SDS011;43379;48.160;14.036;2022-10-04T03:05:59;9.80;;;5.70;;
57551;SDS011;43379;48.160;14.036;2022-10-04T03:08:30;6.93;;;6.10;;
57551;SDS011;43379;48.160;14.036;2022-10-04T03:11:07;5.57;;;5.17;;
57551;SDS011;43379;48.160;14.036;2022-10-04T03:13:36;8.30;;;5.70;;
57551;SDS011;43379;48.160;14.036;2022-10-04T03:16:05;9.43;;;6.00;;
57551;SDS011;43379;48.160;14.036;2022-10-04T03:18:32;8.13;;;5.90;;
57551;SDS011;43379;48.160;14.036;2022-10-04T03:21:07;6.50;;;5.90;;
57551;SDS011;43379;48.160;14.036;2022-10-04T03:23:34;7.27;;;6.60;;
57551;SDS011;43379;48.160;14.036;2022-10-04T03:28:39;6.23;;;5.73;;
57551;SDS011;43379;48.160;14.036;2022-10-04T03:31:05;9.43;;;7.03;;
57551;SDS011;43379;48.160;14.036;2022-10-04T03:33:30;6.70;;;6.10;;
57551;SDS011;43379;48.160;14.036;2022-10-04T03:35:57;7.20;;;6.40;;
57551;SDS011;43379;48.160;14.036;2022-10-04T03:38:25;7.63;;;6.03;;
57551;SDS011;43379;48.160;14.036;2022-10-04T03:40:54;6.63;;;6.13;;
57551;SDS011;43379;48.160;14.036;2022-10-04T03:43:24;6.60;;;5.90;;
57551;SDS011;43379;48.160;14.036;2022-10-04T03:45:54;7.37;;;5.80;;
57551;SDS011;43379;48.160;14.036;2022-10-04T03:48:33;8.30;;;5.90;;
57551;SDS011;43379;48.160;14.036;2022-10-04T03:51:02;6.70;;;5.70;;
57551;SDS011;43379;48.160;14.036;2022-10-04T03:53:38;5.93;;;5.40;;
57551;SDS011;43379;48.160;14.036;2022-10-04T03:56:19;6.20;;;5.47;;
57551;SDS011;43379;48.160;14.036;2022-10-04T03:58:49;6.00;;;5.50;;
57551;SDS011;43379;48.160;14.036;2022-10-04T04:01:19;6.33;;;5.73;;
57551;SDS011;43379;48.160;14.036;2022-10-04T04:04:12;7.00;;;6.27;;
57551;SDS011;43379;48.160;14.036;2022-10-04T04:12:38;10.43;;;8.90;;
57551;SDS011;43379;48.160;14.036;2022-10-04T04:15:11;9.53;;;8.63;;
57551;SDS011;43379;48.160;14.036;2022-10-04T04:17:47;9.87;;;8.07;;
57551;SDS011;43379;48.160;14.036;2022-10-04T04:20:18;10.80;;;7.63;;
57551;SDS011;43379;48.160;14.036;2022-10-04T04:22:51;8.93;;;7.80;;
57551;SDS011;43379;48.160;14.036;2022-10-04T04:25:25;9.50;;;8.20;;
57551;SDS011;43379;48.160;14.036;2022-10-04T04:27:55;13.27;;;10.40;;
57551;SDS011;43379;48.160;14.036;2022-10-04T04:30:26;11.93;;;10.63;;
57551;SDS011;43379;48.160;14.036;2022-10-04T04:32:54;10.90;;;8.87;;
57551;SDS011;43379;48.160;14.036;2022-10-04T04:35:23;12.87;;;8.40;;
57551;SDS011;43379;48.160;14.036;2022-10-04T04:38:09;8.23;;;7.43;;
57551;SDS011;43379;48.160;14.036;2022-10-04T04:40:40;7.73;;;6.63;;
57551;SDS011;43379;48.160;14.036;2022-10-04T04:43:08;7.70;;;7.00;;
57551;SDS011;43379;48.160;14.036;2022-10-04T04:45:44;7.07;;;6.40;;
57551;SDS011;43379;48.160;14.036;2022-10-04T04:48:13;7.60;;;6.80;;
57551;SDS011;43379;48.160;14.036;2022-10-04T04:50:40;8.00;;;5.87;;
57551;SDS011;43379;48.160;14.036;2022-10-04T04:55:49;6.33;;;5.83;;
57551;SDS011;43379;48.160;14.036;2022-10-04T04:58:22;6.80;;;6.10;;
57551;SDS011;43379;48.160;14.036;2022-10-04T05:01:03;6.87;;;6.10;;
57551;SDS011;43379;48.160;14.036;2022-10-04T05:03:32;6.80;;;6.17;;
57551;SDS011;43379;48.160;14.036;2022-10-04T05:05:58;6.33;;;5.63;;
57551;SDS011;43379;48.160;14.036;2022-10-04T05:08:30;7.00;;;6.43;;
57551;SDS011;43379;48.160;14.036;2022-10-04T05:11:00;7.80;;;6.93;;
57551;SDS011;43379;48.160;14.036;2022-10-04T05:13:35;9.60;;;6.23;;
57551;SDS011;43379;48.160;14.036;2022-10-04T05:16:48;7.63;;;6.90;;
57551;SDS011;43379;48.160;14.036;2022-10-04T05:19:01;7.00;;;6.40;;
57551;SDS011;43379;48.160;14.036;2022-10-04T05:21:30;8.50;;;6.73;;
57551;SDS011;43379;48.160;14.036;2022-10-04T05:24:05;6.53;;;5.93;;
57551;SDS011;43379;48.160;14.036;2022-10-04T05:26:35;8.23;;;5.90;;
57551;SDS011;43379;48.160;14.036;2022-10-04T05:29:05;9.77;;;6.47;;
57551;SDS011;43379;48.160;14.036;2022-10-04T05:34:17;6.93;;;6.03;;
57551;SDS011;43379;48.160;14.036;2022-10-04T05:44:37;12.80;;;10.77;;
57551;SDS011;43379;48.160;14.036;2022-10-04T05:47:19;15.73;;;11.33;;
57551;SDS011;43379;48.160;14.036;2022-10-04T05:49:49;13.30;;;10.63;;
57551;SDS011;43379;48.160;14.036;2022-10-04T05:52:39;29.03;;;21.20;;
57551;SDS011;43379;48.160;14.036;2022-10-04T05:55:26;24.37;;;18.43;;
57551;SDS011;43379;48.160;14.036;2022-10-04T05:58:26;13.50;;;11.30;;
57551;SDS011;43379;48.160;14.036;2022-10-04T06:09:29;9.00;;;7.27;;
57551;SDS011;43379;48.160;14.036;2022-10-04T06:12:07;10.60;;;9.60;;
57551;SDS011;43379;48.160;14.036;2022-10-04T06:14:48;10.43;;;9.60;;
57551;SDS011;43379;48.160;14.036;2022-10-04T06:23:18;12.33;;;11.30;;
57551;SDS011;43379;48.160;14.036;2022-10-04T06:26:06;8.87;;;8.03;;
57551;SDS011;43379;48.160;14.036;2022-10-04T06:28:44;8.63;;;7.63;;
57551;SDS011;43379;48.160;14.036;2022-10-04T06:39:17;8.57;;;7.70;;
57551;SDS011;43379;48.160;14.036;2022-10-04T06:47:19;8.30;;;6.97;;
57551;SDS011;43379;48.160;14.036;2022-10-04T06:50:16;11.93;;;8.63;;
57551;SDS011;43379;48.160;14.036;2022-10-04T07:01:59;7.80;;;6.90;;
57551;SDS011;43379;48.160;14.036;2022-10-04T07:04:39;9.50;;;7.63;;
57551;SDS011;43379;48.160;14.036;2022-10-04T07:07:32;13.33;;;7.30;;
57551;SDS011;43379;48.160;14.036;2022-10-04T07:10:13;9.33;;;6.77;;
57551;SDS011;43379;48.160;14.036;2022-10-04T07:12:44;10.57;;;7.17;;
57551;SDS011;43379;48.160;14.036;2022-10-04T07:15:22;6.80;;;5.73;;
57551;SDS011;43379;48.160;14.036;2022-10-04T07:17:53;6.23;;;5.63;;
57551;SDS011;43379;48.160;14.036;2022-10-04T07:20:26;7.60;;;5.30;;
57551;SDS011;43379;48.160;14.036;2022-10-04T07:23:12;11.77;;;7.10;;
57551;SDS011;43379;48.160;14.036;2022-10-04T07:25:48;6.60;;;5.90;;
57551;SDS011;43379;48.160;14.036;2022-10-04T07:28:20;6.13;;;5.00;;
57551;SDS011;43379;48.160;14.036;2022-10-04T07:31:28;8.23;;;5.80;;
57551;SDS011;43379;48.160;14.036;2022-10-04T07:34:02;8.87;;;6.03;;
57551;SDS011;43379;48.160;14.036;2022-10-04T07:39:21;6.20;;;5.13;;
57551;SDS011;43379;48.160;14.036;2022-10-04T07:41:55;5.50;;;5.00;;
57551;SDS011;43379;48.160;14.036;2022-10-04T07:49:53;5.43;;;4.80;;
57551;SDS011;43379;48.160;14.036;2022-10-04T08:14:47;6.07;;;5.43;;
57551;SDS011;43379;48.160;14.036;2022-10-04T08:20:18;9.20;;;4.93;;
57551;SDS011;43379;48.160;14.036;2022-10-04T08:25:41;7.87;;;5.60;;
57551;SDS011;43379;48.160;14.036;2022-10-04T08:43:13;6.20;;;4.00;;
57551;SDS011;43379;48.160;14.036;2022-10-04T09:03:25;6.10;;;3.50;;
57551;SDS011;43379;48.160;14.036;2022-10-04T09:16:45;4.33;;;3.93;;
57551;SDS011;43379;48.160;14.036;2022-10-04T09:25:13;4.60;;;3.13;;
57551;SDS011;43379;48.160;14.036;2022-10-04T09:33:30;4.50;;;3.07;;
57551;SDS011;43379;48.160;14.036;2022-10-04T09:39:31;4.40;;;2.63;;
57551;SDS011;43379;48.160;14.036;2022-10-04T09:47:49;3.40;;;2.60;;
57551;SDS011;43379;48.160;14.036;2022-10-04T09:50:40;3.63;;;2.73;;
57551;SDS011;43379;48.160;14.036;2022-10-04T09:53:21;4.50;;;3.23;;
57551;SDS011;43379;48.160;14.036;2022-10-04T10:39:47;2.30;;;1.50;;
57551;SDS011;43379;48.160;14.036;2022-10-04T10:45:04;4.17;;;2.23;;
57551;SDS011;43379;48.160;14.036;2022-10-04T10:50:31;4.33;;;2.40;;
57551;SDS011;43379;48.160;14.036;2022-10-04T11:02:40;3.03;;;1.73;;
57551;SDS011;43379;48.160;14.036;2022-10-04T11:13:49;3.63;;;1.90;;
57551;SDS011;43379;48.160;14.036;2022-10-04T11:30:08;3.37;;;1.77;;
57551;SDS011;43379;48.160;14.036;2022-10-04T11:42:02;2.90;;;1.50;;
57551;SDS011;43379;48.160;14.036;2022-10-04T11:44:54;2.87;;;1.57;;
57551;SDS011;43379;48.160;14.036;2022-10-04T11:48:03;2.10;;;1.90;;
57551;SDS011;43379;48.160;14.036;2022-10-04T12:01:44;2.70;;;1.30;;
57551;SDS011;43379;48.160;14.036;2022-10-04T12:10:21;3.10;;;1.47;;
57551;SDS011;43379;48.160;14.036;2022-10-04T12:26:44;2.57;;;1.40;;
57551;SDS011;43379;48.160;14.036;2022-10-04T12:29:39;2.40;;;1.13;;
57551;SDS011;43379;48.160;14.036;2022-10-04T12:32:17;1.65;;;1.50;;
57551;SDS011;43379;48.160;14.036;2022-10-04T12:37:41;2.10;;;1.60;;
57551;SDS011;43379;48.160;14.036;2022-10-04T12:41:07;2.07;;;1.20;;
57551;SDS011;43379;48.160;14.036;2022-10-04T12:52:10;3.00;;;1.70;;
57551;SDS011;43379;48.160;14.036;2022-10-04T12:57:35;2.00;;;1.37;;
57551;SDS011;43379;48.160;14.036;2022-10-04T13:00:23;2.00;;;1.10;;
57551;SDS011;43379;48.160;14.036;2022-10-04T13:05:36;2.90;;;1.10;;
57551;SDS011;43379;48.160;14.036;2022-10-04T13:11:07;1.00;;;0.70;;
57551;SDS011;43379;48.160;14.036;2022-10-04T13:13:57;1.07;;;0.70;;
57551;SDS011;43379;48.160;14.036;2022-10-04T13:32:49;0.90;;;0.80;;
57551;SDS011;43379;48.160;14.036;2022-10-04T13:35:20;1.20;;;0.90;;
57551;SDS011;43379;48.160;14.036;2022-10-04T13:49:03;3.43;;;1.30;;
57551;SDS011;43379;48.160;14.036;2022-10-04T14:06:59;1.63;;;1.20;;
57551;SDS011;43379;48.160;14.036;2022-10-04T14:18:15;2.30;;;1.27;;
57551;SDS011;43379;48.160;14.036;2022-10-04T14:24:02;2.67;;;1.00;;
57551;SDS011;43379;48.160;14.036;2022-10-04T14:26:47;1.20;;;1.00;;
57551;SDS011;43379;48.160;14.036;2022-10-04T14:29:59;1.57;;;1.20;;
57551;SDS011;43379;48.160;14.036;2022-10-04T14:38:15;2.37;;;1.20;;
57551;SDS011;43379;48.160;14.036;2022-10-04T14:41:50;2.40;;;1.10;;
57551;SDS011;43379;48.160;14.036;2022-10-04T14:55:12;2.63;;;1.43;;
57551;SDS011;43379;48.160;14.036;2022-10-04T15:03:29;2.23;;;1.20;;
57551;SDS011;43379;48.160;14.036;2022-10-04T15:08:41;2.27;;;1.50;;
57551;SDS011;43379;48.160;14.036;2022-10-04T15:11:18;2.60;;;1.53;;
57551;SDS011;43379;48.160;14.036;2022-10-04T15:13:59;2.60;;;1.57;;
57551;SDS011;43379;48.160;14.036;2022-10-04T15:16:44;3.10;;;1.87;;
57551;SDS011;43379;48.160;14.036;2022-10-04T15:22:48;3.10;;;1.90;;
57551;SDS011;43379;48.160;14.036;2022-10-04T15:24:48;1.63;;;1.40;;
57551;SDS011;43379;48.160;14.036;2022-10-04T15:46:32;2.20;;;1.20;;
57551;SDS011;43379;48.160;14.036;2022-10-04T15:51:54;2.00;;;1.23;;
57551;SDS011;43379;48.160;14.036;2022-10-04T15:58:22;2.13;;;1.30;;
57551;SDS011;43379;48.160;14.036;2022-10-04T16:03:44;2.70;;;1.40;;
57551;SDS011;43379;48.160;14.036;2022-10-04T16:07:21;3.37;;;2.27;;
57551;SDS011;43379;48.160;14.036;2022-10-04T16:15:19;3.83;;;1.83;;
57551;SDS011;43379;48.160;14.036;2022-10-04T16:18:05;2.10;;;1.90;;
57551;SDS011;43379;48.160;14.036;2022-10-04T16:23:40;3.47;;;2.53;;
57551;SDS011;43379;48.160;14.036;2022-10-04T16:29:10;3.23;;;2.03;;
57551;SDS011;43379;48.160;14.036;2022-10-04T16:31:43;2.83;;;2.40;;
57551;SDS011;43379;48.160;14.036;2022-10-04T16:34:33;3.70;;;2.30;;
57551;SDS011;43379;48.160;14.036;2022-10-04T16:48:03;3.60;;;3.30;;
57551;SDS011;43379;48.160;14.036;2022-10-04T16:56:24;4.47;;;3.90;;
57551;SDS011;43379;48.160;14.036;2022-10-04T16:58:59;3.73;;;3.30;;
57551;SDS011;43379;48.160;14.036;2022-10-04T17:06:58;4.77;;;3.57;;
57551;SDS011;43379;48.160;14.036;2022-10-04T17:09:34;5.97;;;3.63;;
57551;SDS011;43379;48.160;14.036;2022-10-04T17:15:04;4.53;;;3.83;;
57551;SDS011;43379;48.160;14.036;2022-10-04T17:26:15;4.70;;;4.30;;
57551;SDS011;43379;48.160;14.036;2022-10-04T17:34:42;6.90;;;6.20;;
57551;SDS011;43379;48.160;14.036;2022-10-04T17:51:27;8.73;;;8.03;;
57551;SDS011;43379;48.160;14.036;2022-10-04T17:54:17;8.90;;;8.10;;
57551;SDS011;43379;48.160;14.036;2022-10-04T17:57:35;8.93;;;8.10;;
57551;SDS011;43379;48.160;14.036;2022-10-04T18:05:03;11.30;;;10.33;;
57551;SDS011;43379;48.160;14.036;2022-10-04T18:10:33;18.47;;;16.90;;
57551;SDS011;43379;48.160;14.036;2022-10-04T18:13:14;18.87;;;17.13;;
57551;SDS011;43379;48.160;14.036;2022-10-04T18:18:39;18.27;;;16.60;;
57551;SDS011;43379;48.160;14.036;2022-10-04T18:26:26;15.70;;;14.40;;
57551;SDS011;43379;48.160;14.036;2022-10-04T18:28:54;14.50;;;13.20;;
57551;SDS011;43379;48.160;14.036;2022-10-04T18:34:14;17.60;;;15.87;;
57551;SDS011;43379;48.160;14.036;2022-10-04T18:36:53;17.27;;;15.87;;
57551;SDS011;43379;48.160;14.036;2022-10-04T18:39:29;14.70;;;13.40;;
57551;SDS011;43379;48.160;14.036;2022-10-04T18:42:13;14.43;;;13.23;;
57551;SDS011;43379;48.160;14.036;2022-10-04T18:47:31;16.93;;;15.33;;
57551;SDS011;43379;48.160;14.036;2022-10-04T18:50:13;18.13;;;16.33;;
57551;SDS011;43379;48.160;14.036;2022-10-04T18:55:25;17.27;;;15.47;;
57551;SDS011;43379;48.160;14.036;2022-10-04T19:07:30;14.23;;;12.03;;
57551;SDS011;43379;48.160;14.036;2022-10-04T19:15:50;8.57;;;7.40;;
57551;SDS011;43379;48.160;14.036;2022-10-04T19:23:35;7.50;;;6.80;;
57551;SDS011;43379;48.160;14.036;2022-10-04T19:26:27;9.70;;;7.80;;
57551;SDS011;43379;48.160;14.036;2022-10-04T19:31:55;8.30;;;7.50;;
57551;SDS011;43379;48.160;14.036;2022-10-04T19:37:01;7.37;;;6.73;;
57551;SDS011;43379;48.160;14.036;2022-10-04T19:39:51;7.20;;;6.50;;
57551;SDS011;43379;48.160;14.036;2022-10-04T19:47:50;7.80;;;6.77;;
57551;SDS011;43379;48.160;14.036;2022-10-04T19:55:46;7.80;;;7.00;;
57551;SDS011;43379;48.160;14.036;2022-10-04T20:01:14;7.73;;;7.03;;
57551;SDS011;43379;48.160;14.036;2022-10-04T20:03:40;7.90;;;7.30;;
57551;SDS011;43379;48.160;14.036;2022-10-04T20:06:06;9.13;;;7.30;;
57551;SDS011;43379;48.160;14.036;2022-10-04T20:08:48;7.97;;;7.03;;
57551;SDS011;43379;48.160;14.036;2022-10-04T20:11:21;8.07;;;7.17;;
57551;SDS011;43379;48.160;14.036;2022-10-04T20:19:16;8.70;;;8.00;;
57551;SDS011;43379;48.160;14.036;2022-10-04T20:21:44;8.47;;;7.60;;
57551;SDS011;43379;48.160;14.036;2022-10-04T20:24:17;7.90;;;7.10;;
57551;SDS011;43379;48.160;14.036;2022-10-04T20:27:05;7.50;;;6.90;;
57551;SDS011;43379;48.160;14.036;2022-10-04T20:29:58;8.40;;;7.53;;
57551;SDS011;43379;48.160;14.036;2022-10-04T20:35:03;9.50;;;8.60;;
57551;SDS011;43379;48.160;14.036;2022-10-04T20:45:50;8.03;;;7.37;;
57551;SDS011;43379;48.160;14.036;2022-10-04T20:48:19;9.70;;;8.63;;
57551;SDS011;43379;48.160;14.036;2022-10-04T20:50:46;8.07;;;7.37;;
57551;SDS011;43379;48.160;14.036;2022-10-04T20:53:20;9.13;;;7.60;;
57551;SDS011;43379;48.160;14.036;2022-10-04T20:55:51;9.10;;;8.20;;
57551;SDS011;43379;48.160;14.036;2022-10-04T20:58:53;9.73;;;8.83;;
57551;SDS011;43379;48.160;14.036;2022-10-04T21:01:24;10.53;;;8.37;;
57551;SDS011;43379;48.160;14.036;2022-10-04T21:07:00;11.70;;;8.70;;
57551;SDS011;43379;48.160;14.036;2022-10-04T21:09:30;9.37;;;8.17;;
57551;SDS011;43379;48.160;14.036;2022-10-04T21:11:58;8.63;;;7.80;;
57551;SDS011;43379;48.160;14.036;2022-10-04T21:14:25;9.23;;;7.90;;
57551;SDS011;43379;48.160;14.036;2022-10-04T21:16:55;9.30;;;8.50;;
57551;SDS011;43379;48.160;14.036;2022-10-04T21:21:57;8.60;;;7.70;;
57551;SDS011;43379;48.160;14.036;2022-10-04T21:27:01;9.80;;;8.80;;
57551;SDS011;43379;48.160;14.036;2022-10-04T21:29:28;10.60;;;9.60;;
57551;SDS011;43379;48.160;14.036;2022-10-04T21:31:57;9.23;;;7.83;;
57551;SDS011;43379;48.160;14.036;2022-10-04T21:34:23;9.10;;;8.30;;
57551;SDS011;43379;48.160;14.036;2022-10-04T21:36:49;17.43;;;10.40;;
57551;SDS011;43379;48.160;14.036;2022-10-04T21:39:15;8.83;;;8.03;;
57551;SDS011;43379;48.160;14.036;2022-10-04T21:41:41;8.87;;;8.03;;
57551;SDS011;43379;48.160;14.036;2022-10-04T21:44:07;9.00;;;8.00;;
57551;SDS011;43379;48.160;14.036;2022-10-04T21:46:33;9.50;;;8.70;;
57551;SDS011;43379;48.160;14.036;2022-10-04T21:48:59;8.90;;;8.07;;
57551;SDS011;43379;48.160;14.036;2022-10-04T21:51:24;9.27;;;8.33;;
57551;SDS011;43379;48.160;14.036;2022-10-04T21:53:50;10.60;;;9.60;;
57551;SDS011;43379;48.160;14.036;2022-10-04T21:56:16;9.00;;;8.20;;
57551;SDS011;43379;48.160;14.036;2022-10-04T21:58:42;8.10;;;7.40;;
57551;SDS011;43379;48.160;14.036;2022-10-04T22:01:07;8.00;;;7.20;;
57551;SDS011;43379;48.160;14.036;2022-10-04T22:03:33;10.00;;;9.00;;
57551;SDS011;43379;48.160;14.036;2022-10-04T22:05:59;8.43;;;7.67;;
57551;SDS011;43379;48.160;14.036;2022-10-04T22:08:24;8.60;;;7.87;;
57551;SDS011;43379;48.160;14.036;2022-10-04T22:10:50;8.43;;;7.60;;
57551;SDS011;43379;48.160;14.036;2022-10-04T22:13:16;9.90;;;8.47;;
57551;SDS011;43379;48.160;14.036;2022-10-04T22:15:41;10.87;;;7.57;;
57551;SDS011;43379;48.160;14.036;2022-10-04T22:18:07;8.53;;;7.70;;
57551;SDS011;43379;48.160;14.036;2022-10-04T22:20:33;8.50;;;7.60;;
57551;SDS011;43379;48.160;14.036;2022-10-04T22:22:59;8.43;;;7.50;;
57551;SDS011;43379;48.160;14.036;2022-10-04T22:25:26;8.13;;;7.33;;
57551;SDS011;43379;48.160;14.036;2022-10-04T22:27:52;7.30;;;6.70;;
57551;SDS011;43379;48.160;14.036;2022-10-04T22:30:28;9.40;;;8.50;;
57551;SDS011;43379;48.160;14.036;2022-10-04T22:32:59;8.20;;;7.40;;
57551;SDS011;43379;48.160;14.036;2022-10-04T22:35:27;8.33;;;7.53;;
57551;SDS011;43379;48.160;14.036;2022-10-04T22:37:54;9.03;;;6.40;;
57551;SDS011;43379;48.160;14.036;2022-10-04T22:40:24;8.80;;;8.00;;
57551;SDS011;43379;48.160;14.036;2022-10-04T22:42:51;7.57;;;6.67;;
57551;SDS011;43379;48.160;14.036;2022-10-04T22:45:23;7.53;;;6.73;;
57551;SDS011;43379;48.160;14.036;2022-10-04T22:47:52;8.20;;;6.57;;
57551;SDS011;43379;48.160;14.036;2022-10-04T22:53:18;8.43;;;6.17;;
57551;SDS011;43379;48.160;14.036;2022-10-04T22:55:49;6.43;;;5.83;;
57551;SDS011;43379;48.160;14.036;2022-10-04T22:58:16;10.37;;;6.60;;
57551;SDS011;43379;48.160;14.036;2022-10-04T23:00:42;6.17;;;5.60;;
57551;SDS011;43379;48.160;14.036;2022-10-04T23:03:25;8.90;;;6.07;;
57551;SDS011;43379;48.160;14.036;2022-10-04T23:05:55;7.33;;;6.40;;
57551;SDS011;43379;48.160;14.036;2022-10-04T23:08:25;8.30;;;5.93;;
57551;SDS011;43379;48.160;14.036;2022-10-04T23:10:54;5.90;;;4.97;;
57551;SDS011;43379;48.160;14.036;2022-10-04T23:13:22;7.03;;;6.33;;
57551;SDS011;43379;48.160;14.036;2022-10-04T23:15:48;6.17;;;5.57;;
57551;SDS011;43379;48.160;14.036;2022-10-04T23:18:14;5.83;;;5.30;;
57551;SDS011;43379;48.160;14.036;2022-10-04T23:20:42;6.33;;;5.73;;
57551;SDS011;43379;48.160;14.036;2022-10-04T23:23:12;6.77;;;6.10;;
57551;SDS011;43379;48.160;14.036;2022-10-04T23:25:45;6.40;;;5.80;;
57551;SDS011;43379;48.160;14.036;2022-10-04T23:28:13;5.90;;;5.40;;
57551;SDS011;43379;48.160;14.036;2022-10-04T23:30:40;6.30;;;5.80;;
57551;SDS011;43379;48.160;14.036;2022-10-04T23:33:12;6.50;;;5.90;;
57551;SDS011;43379;48.160;14.036;2022-10-04T23:35:48;7.17;;;6.57;;
57551;SDS011;43379;48.160;14.036;2022-10-04T23:38:15;7.30;;;5.77;;
57551;SDS011;43379;48.160;14.036;2022-10-04T23:40:42;7.07;;;6.47;;
57551;SDS011;43379;48.160;14.036;2022-10-04T23:43:22;6.43;;;5.83;;
57551;SDS011;43379;48.160;14.036;2022-10-04T23:45:53;5.97;;;5.43;;
57551;SDS011;43379;48.160;14.036;2022-10-04T23:48:23;6.00;;;5.40;;
57551;SDS011;43379;48.160;14.036;2022-10-04T23:50:51;5.43;;;4.93;;
57551;SDS011;43379;48.160;14.036;2022-10-04T23:53:23;5.93;;;5.40;;
57551;SDS011;43379;48.160;14.036;2022-10-04T23:55:51;6.60;;;6.00;;
57551;SDS011;43379;48.160;14.036;2022-10-04T23:58:22;6.73;;;6.07;;
